createdAt,value
2023-03-30T00:01:15.384Z,50.81
2023-03-30T00:03:44.248Z,50.90
2023-03-30T00:06:14.898Z,50.89
2023-03-30T00:08:41.974Z,50.83
2023-03-30T00:11:17.104Z,50.82
2023-03-30T00:13:45.005Z,50.88
2023-03-30T00:16:14.476Z,50.57
2023-03-30T00:18:41.891Z,50.52
2023-03-30T00:21:11.207Z,50.95
2023-03-30T00:23:40.058Z,50.72
2023-03-30T00:26:07.798Z,51.08
2023-03-30T00:28:35.118Z,51.82
2023-03-30T00:31:02.915Z,52.04
2023-03-30T00:33:44.641Z,52.02
2023-03-30T00:36:13.878Z,52.07
2023-03-30T00:38:41.101Z,51.89
2023-03-30T00:41:09.360Z,51.56
2023-03-30T00:44:02.331Z,51.95
2023-03-30T00:46:31.735Z,51.95
2023-03-30T00:49:05.246Z,51.64
2023-03-30T00:51:38.465Z,52.02
2023-03-30T00:54:16.698Z,51.71
2023-03-30T00:56:44.096Z,51.21
2023-03-30T00:59:11.500Z,51.43
2023-03-30T01:01:41.415Z,51.43
2023-03-30T01:04:11.216Z,51.55
2023-03-30T01:06:40.901Z,51.73
2023-03-30T01:09:08.575Z,51.31
2023-03-30T01:11:35.788Z,51.36
2023-03-30T01:14:10.862Z,51.39
2023-03-30T01:17:01.554Z,51.36
2023-03-30T01:19:53.059Z,51.64
2023-03-30T01:23:04.333Z,51.80
2023-03-30T01:26:06.983Z,52.19
2023-03-30T01:28:50.729Z,52.42
2023-03-30T01:31:48.900Z,52.93
2023-03-30T01:35:20.831Z,52.69
2023-03-30T01:38:37.342Z,52.76
2023-03-30T01:41:25.919Z,52.65
2023-03-30T01:44:09.046Z,53.18
2023-03-30T01:46:55.564Z,52.98
2023-03-30T01:49:38.004Z,52.89
2023-03-30T01:52:38.606Z,52.85
2023-03-30T01:55:20.641Z,52.96
2023-03-30T01:57:58.850Z,52.84
2023-03-30T02:00:27.688Z,52.76
2023-03-30T02:03:06.739Z,53.04
2023-03-30T02:05:36.184Z,53.07
2023-03-30T02:08:16.379Z,53.05
2023-03-30T02:10:45.889Z,53.04
2023-03-30T02:13:14.323Z,53.00
2023-03-30T02:15:50.092Z,52.89
2023-03-30T02:18:19.976Z,53.10
2023-03-30T02:20:49.462Z,53.09
2023-03-30T02:23:20.996Z,53.39
2023-03-30T02:25:48.455Z,53.26
2023-03-30T02:28:18.500Z,53.50
2023-03-30T02:30:47.310Z,53.27
2023-03-30T02:33:50.867Z,53.22
2023-03-30T02:36:38.691Z,53.01
2023-03-30T02:39:50.595Z,53.46
2023-03-30T02:42:55.424Z,53.96
2023-03-30T02:46:02.567Z,54.00
2023-03-30T02:48:58.696Z,54.35
2023-03-30T02:51:29.913Z,54.12
2023-03-30T02:54:43.886Z,54.30
2023-03-30T02:57:55.009Z,54.24
2023-03-30T03:01:14.718Z,54.28
2023-03-30T03:03:54.029Z,54.33
2023-03-30T03:06:23.930Z,54.72
2023-03-30T03:08:56.258Z,54.83
2023-03-30T03:11:27.219Z,54.63
2023-03-30T03:13:55.716Z,54.43
2023-03-30T03:16:24.146Z,54.82
2023-03-30T03:19:08.916Z,54.48
2023-03-30T03:21:37.065Z,54.94
2023-03-30T03:24:06.578Z,54.85
2023-03-30T03:26:53.086Z,54.66
2023-03-30T03:29:23.115Z,54.37
2023-03-30T03:31:50.355Z,54.60
2023-03-30T03:34:20.522Z,54.66
2023-03-30T03:36:57.300Z,54.77
2023-03-30T03:39:27.166Z,54.61
2023-03-30T03:42:01.591Z,54.27
2023-03-30T03:44:28.760Z,54.53
2023-03-30T03:46:56.283Z,54.56
2023-03-30T03:49:24.058Z,54.50
2023-03-30T03:51:51.121Z,54.73
2023-03-30T03:54:18.369Z,54.41
2023-03-30T03:56:48.195Z,54.59
2023-03-30T03:59:15.633Z,55.01
2023-03-30T04:01:42.789Z,55.06
2023-03-30T04:04:09.922Z,55.10
2023-03-30T04:06:37.434Z,55.04
2023-03-30T04:09:04.651Z,54.94
2023-03-30T04:12:07.030Z,55.08
2023-03-30T04:14:52.711Z,55.53
2023-03-30T04:17:50.050Z,55.73
2023-03-30T04:20:30.314Z,55.55
2023-03-30T04:23:09.923Z,55.32
2023-03-30T04:25:55.695Z,55.11
2023-03-30T04:28:43.412Z,55.11
2023-03-30T04:31:35.958Z,55.24
2023-03-30T04:34:35.310Z,55.46
2023-03-30T04:37:30.371Z,55.40
2023-03-30T04:40:16.398Z,55.25
2023-03-30T04:42:52.840Z,55.22
2023-03-30T04:45:58.343Z,55.19
2023-03-30T04:48:44.179Z,55.31
2023-03-30T04:51:40.952Z,55.26
2023-03-30T04:54:29.235Z,55.08
2023-03-30T04:57:17.581Z,55.13
2023-03-30T04:59:58.277Z,55.18
2023-03-30T05:02:54.412Z,55.15
2023-03-30T05:05:51.316Z,55.27
2023-03-30T05:08:47.657Z,55.17
2023-03-30T05:11:47.142Z,54.91
2023-03-30T05:14:23.164Z,54.53
2023-03-30T05:17:01.945Z,54.37
2023-03-30T05:19:38.235Z,54.56
2023-03-30T05:22:24.343Z,54.73
2023-03-30T05:25:00.514Z,54.26
2023-03-30T05:28:00.125Z,53.95
2023-03-30T05:30:41.761Z,54.08
2023-03-30T05:33:11.706Z,54.37
2023-03-30T05:35:59.220Z,54.15
2023-03-30T05:38:57.360Z,53.67
2023-03-30T05:41:49.407Z,53.66
2023-03-30T05:44:26.769Z,53.57
2023-03-30T05:47:27.872Z,52.99
2023-03-30T05:50:09.359Z,53.24
2023-03-30T05:52:47.987Z,52.98
2023-03-30T05:55:18.151Z,52.40
2023-03-30T05:58:04.116Z,52.09
2023-03-30T06:00:49.799Z,51.48
2023-03-30T06:03:29.532Z,51.21
2023-03-30T06:05:57.061Z,50.66
2023-03-30T06:08:24.406Z,50.23
2023-03-30T06:10:57.540Z,49.90
2023-03-30T06:13:27.949Z,49.83
2023-03-30T06:15:56.165Z,49.43
2023-03-30T06:18:26.572Z,49.40
2023-03-30T06:21:07.783Z,49.16
2023-03-30T06:23:49.261Z,48.68
2023-03-30T06:26:21.648Z,48.40
2023-03-30T06:28:49.392Z,47.86
2023-03-30T06:31:16.643Z,47.61
2023-03-30T06:33:45.144Z,47.50
2023-03-30T06:36:14.676Z,47.21
2023-03-30T06:38:44.715Z,46.92
2023-03-30T06:41:12.902Z,46.88
2023-03-30T06:43:43.411Z,47.19
2023-03-30T06:46:15.634Z,47.15
2023-03-30T06:48:48.489Z,46.86
2023-03-30T06:51:38.006Z,46.86
2023-03-30T06:54:07.064Z,47.08
2023-03-30T06:56:34.726Z,47.02
2023-03-30T06:59:08.972Z,47.23
2023-03-30T07:01:56.385Z,47.30
2023-03-30T07:04:38.117Z,47.08
2023-03-30T07:07:19.908Z,46.78
2023-03-30T07:09:47.861Z,47.04
2023-03-30T07:12:15.075Z,47.32
2023-03-30T07:14:42.809Z,46.62
2023-03-30T07:17:10.261Z,46.72
2023-03-30T07:19:37.613Z,46.04
2023-03-30T07:22:04.975Z,44.93
2023-03-30T07:24:33.763Z,44.31
2023-03-30T07:27:01.564Z,43.78
2023-03-30T07:29:29.398Z,43.57
2023-03-30T07:31:57.262Z,43.04
2023-03-30T07:34:24.826Z,42.23
2023-03-30T07:36:55.454Z,41.56
2023-03-30T07:39:26.779Z,41.40
2023-03-30T07:41:54.214Z,41.62
2023-03-30T07:44:22.859Z,42.05
2023-03-30T07:46:50.186Z,42.35
2023-03-30T07:49:23.304Z,42.63
2023-03-30T07:51:51.891Z,42.99
2023-03-30T07:54:26.413Z,42.71
2023-03-30T07:57:06.780Z,42.24
2023-03-30T07:59:34.584Z,41.96
2023-03-30T08:02:14.977Z,41.90
2023-03-30T08:04:54.114Z,42.18
2023-03-30T08:07:32.415Z,41.76
2023-03-30T08:10:09.341Z,41.92
2023-03-30T08:12:37.823Z,41.62
2023-03-30T08:15:05.844Z,41.35
2023-03-30T08:17:33.479Z,41.13
2023-03-30T08:20:02.066Z,40.57
2023-03-30T08:22:29.430Z,40.62
2023-03-30T08:24:57.178Z,41.00
2023-03-30T08:27:24.550Z,40.14
2023-03-30T08:29:54.452Z,39.77
2023-03-30T08:32:24.608Z,39.26
2023-03-30T08:34:53.966Z,39.23
2023-03-30T08:37:21.460Z,38.31
2023-03-30T08:39:48.896Z,37.75
2023-03-30T08:42:43.687Z,37.24
2023-03-30T08:45:12.970Z,37.24
2023-03-30T08:47:46.139Z,37.89
2023-03-30T08:50:36.130Z,38.70
2023-03-30T08:53:08.331Z,39.16
2023-03-30T08:55:44.900Z,39.61
2023-03-30T08:58:48.438Z,39.91
2023-03-30T09:01:58.924Z,40.33
2023-03-30T09:05:13.452Z,40.46
2023-03-30T09:08:22.870Z,40.69
2023-03-30T09:11:02.535Z,41.02
2023-03-30T09:13:35.081Z,41.40
2023-03-30T09:16:30.034Z,41.67
2023-03-30T09:18:59.392Z,42.50
2023-03-30T09:21:31.542Z,42.45
2023-03-30T09:24:01.484Z,42.53
2023-03-30T09:26:44.080Z,42.63
2023-03-30T09:29:14.000Z,43.10
2023-03-30T09:31:52.337Z,42.92
2023-03-30T09:34:39.193Z,43.91
2023-03-30T09:37:22.468Z,43.94
2023-03-30T09:39:50.855Z,44.13
2023-03-30T09:42:48.310Z,45.33
2023-03-30T09:45:23.274Z,45.96
2023-03-30T09:47:50.866Z,47.49
2023-03-30T09:50:27.703Z,47.88
2023-03-30T09:53:07.561Z,47.68
2023-03-30T09:55:36.720Z,48.55
2023-03-30T09:58:34.618Z,48.25
2023-03-30T10:01:18.484Z,48.64
2023-03-30T10:04:06.780Z,48.36
2023-03-30T10:06:40.083Z,48.44
2023-03-30T10:09:12.682Z,48.46
2023-03-30T10:11:54.108Z,48.38
2023-03-30T10:14:36.785Z,49.12
2023-03-30T10:17:05.492Z,49.85
2023-03-30T10:19:38.392Z,50.82
2023-03-30T10:22:17.877Z,51.70
2023-03-30T10:24:57.088Z,51.34
2023-03-30T10:27:34.334Z,51.29
2023-03-30T10:30:11.465Z,51.42
2023-03-30T10:32:38.642Z,51.64
2023-03-30T10:35:10.573Z,52.05
2023-03-30T10:37:46.461Z,51.98
2023-03-30T10:40:22.114Z,52.38
2023-03-30T10:42:55.997Z,52.81
2023-03-30T10:45:35.092Z,53.30
2023-03-30T10:48:31.255Z,53.83
2023-03-30T10:51:11.197Z,53.37
2023-03-30T10:53:58.530Z,52.78
2023-03-30T10:56:52.262Z,52.05
2023-03-30T10:59:54.832Z,51.35
2023-03-30T11:03:02.327Z,50.56
2023-03-30T11:05:33.584Z,49.76
2023-03-30T11:08:29.818Z,49.25
2023-03-30T11:10:59.686Z,48.51
2023-03-30T11:13:32.592Z,47.26
2023-03-30T11:16:31.460Z,47.19
2023-03-30T11:19:24.628Z,47.15
2023-03-30T11:22:40.033Z,47.20
2023-03-30T11:25:22.448Z,46.74
2023-03-30T11:28:23.369Z,46.00
2023-03-30T11:30:55.412Z,46.03
2023-03-30T11:33:37.100Z,45.67
2023-03-30T11:36:18.849Z,44.64
2023-03-30T11:39:18.444Z,43.58
2023-03-30T11:42:17.898Z,42.81
2023-03-30T11:44:45.131Z,42.36
2023-03-30T11:47:50.470Z,41.51
2023-03-30T11:51:08.141Z,41.00
2023-03-30T11:53:41.167Z,39.57
2023-03-30T11:56:19.300Z,37.96
2023-03-30T11:59:09.502Z,37.78
2023-03-30T12:01:57.771Z,35.97
2023-03-30T12:04:43.555Z,36.03
2023-03-30T12:07:53.645Z,34.14
2023-03-30T12:10:28.590Z,33.01
2023-03-30T12:12:56.495Z,32.52
2023-03-30T12:15:49.116Z,34.83
2023-03-30T12:18:41.188Z,36.82
2023-03-30T12:21:11.063Z,37.65
2023-03-30T12:24:04.866Z,36.34
2023-03-30T12:26:34.370Z,35.57
2023-03-30T12:29:44.386Z,35.83
2023-03-30T12:32:02.966Z,34.83
2023-03-30T12:34:37.682Z,34.18
2023-03-30T12:37:35.708Z,35.43
2023-03-30T12:40:20.797Z,35.43
2023-03-30T12:43:08.752Z,34.98
2023-03-30T12:45:49.873Z,34.96
2023-03-30T12:48:50.468Z,32.83
2023-03-30T12:51:32.608Z,33.06
2023-03-30T12:54:26.740Z,35.62
2023-03-30T12:57:00.306Z,36.79
2023-03-30T13:00:11.899Z,38.02
2023-03-30T13:03:36.789Z,37.84
2023-03-30T13:06:12.157Z,34.95
2023-03-30T13:08:42.107Z,34.92
2023-03-30T13:11:22.111Z,34.54
2023-03-30T13:14:01.871Z,32.74
2023-03-30T13:16:51.278Z,33.91
2023-03-30T13:19:33.564Z,33.80
2023-03-30T13:22:13.480Z,32.71
2023-03-30T13:25:03.982Z,34.41
2023-03-30T13:27:37.798Z,34.63
2023-03-30T13:30:15.530Z,36.72
2023-03-30T13:33:23.702Z,37.70
2023-03-30T13:36:09.747Z,37.83
2023-03-30T13:38:56.419Z,38.11
2023-03-30T13:41:44.763Z,39.14
2023-03-30T13:44:46.966Z,38.99
2023-03-30T13:47:57.451Z,38.54
2023-03-30T13:50:31.499Z,37.75
2023-03-30T13:53:04.418Z,37.13
2023-03-30T13:55:34.745Z,37.55
2023-03-30T13:58:12.005Z,37.33
2023-03-30T14:00:48.661Z,35.76
2023-03-30T14:03:46.412Z,30.69
2023-03-30T14:06:14.636Z,32.72
2023-03-30T14:09:05.556Z,34.02
2023-03-30T14:11:48.216Z,31.02
2023-03-30T14:14:29.884Z,28.79
2023-03-30T14:16:59.537Z,27.62
2023-03-30T14:19:35.474Z,28.58
2023-03-30T14:22:11.433Z,31.90
2023-03-30T14:24:38.704Z,31.00
2023-03-30T14:27:14.567Z,29.50
2023-03-30T14:29:51.368Z,29.78
2023-03-30T14:32:23.361Z,29.77
2023-03-30T14:34:52.859Z,32.03
2023-03-30T14:37:23.118Z,33.89
2023-03-30T14:39:57.471Z,33.63
2023-03-30T14:42:27.596Z,33.66
2023-03-30T14:44:57.309Z,32.76
2023-03-30T14:47:27.332Z,31.31
2023-03-30T14:49:58.185Z,30.36
2023-03-30T14:52:38.715Z,31.51
2023-03-30T14:55:11.485Z,30.64
2023-03-30T14:57:41.847Z,33.46
2023-03-30T15:00:17.845Z,32.89
2023-03-30T15:02:46.677Z,34.69
2023-03-30T15:05:21.512Z,36.03
2023-03-30T15:07:50.551Z,36.61
2023-03-30T15:10:25.033Z,37.83
2023-03-30T15:12:56.057Z,38.30
2023-03-30T15:15:30.374Z,38.99
2023-03-30T15:17:58.332Z,43.07
2023-03-30T15:20:29.277Z,52.97
2023-03-30T15:22:56.794Z,54.81
2023-03-30T15:25:37.029Z,50.21
2023-03-30T15:28:07.390Z,50.27
2023-03-30T15:30:41.205Z,48.95
2023-03-30T15:33:32.320Z,40.75
2023-03-30T15:36:07.928Z,39.67
2023-03-30T15:38:52.869Z,40.75
2023-03-30T15:41:42.796Z,41.99
2023-03-30T15:44:20.868Z,43.82
2023-03-30T15:46:51.300Z,44.20
2023-03-30T15:49:22.565Z,43.72
2023-03-30T15:51:56.773Z,44.64
2023-03-30T15:54:40.121Z,45.14
2023-03-30T15:57:11.237Z,46.66
2023-03-30T15:59:44.793Z,49.27
2023-03-30T16:02:22.745Z,53.02
2023-03-30T16:04:51.701Z,54.10
2023-03-30T16:07:24.943Z,54.15
2023-03-30T16:09:52.726Z,54.57
2023-03-30T16:12:25.248Z,54.93
2023-03-30T16:14:53.709Z,55.40
2023-03-30T16:17:21.261Z,54.39
2023-03-30T16:19:48.542Z,54.84
2023-03-30T16:22:16.615Z,55.31
2023-03-30T16:24:44.151Z,54.90
2023-03-30T16:27:12.522Z,54.30
2023-03-30T16:29:39.626Z,53.78
2023-03-30T16:32:06.918Z,53.97
2023-03-30T16:34:34.186Z,54.12
2023-03-30T16:37:02.048Z,54.53
2023-03-30T16:39:30.590Z,55.20
2023-03-30T16:41:57.820Z,55.31
2023-03-30T16:44:25.508Z,55.16
2023-03-30T16:46:53.116Z,55.50
2023-03-30T16:49:24.510Z,55.64
2023-03-30T16:51:54.554Z,54.83
2023-03-30T16:54:31.059Z,54.28
2023-03-30T16:57:01.066Z,54.33
2023-03-30T16:59:32.671Z,53.97
2023-03-30T17:02:00.492Z,53.67
2023-03-30T17:04:27.954Z,52.80
2023-03-30T17:06:56.285Z,52.84
2023-03-30T17:09:23.492Z,52.32
2023-03-30T17:11:51.050Z,52.11
2023-03-30T17:14:18.399Z,52.09
2023-03-30T17:16:45.601Z,51.53
2023-03-30T17:19:14.428Z,51.06
2023-03-30T17:21:43.820Z,50.82
2023-03-30T17:24:12.656Z,50.41
2023-03-30T17:26:40.373Z,50.07
2023-03-30T17:29:07.551Z,49.63
2023-03-30T17:31:34.810Z,49.77
2023-03-30T17:34:01.949Z,50.07
2023-03-30T17:36:29.277Z,50.79
2023-03-30T17:38:56.759Z,50.48
2023-03-30T17:41:24.112Z,50.66
2023-03-30T17:43:51.670Z,50.16
2023-03-30T17:46:20.330Z,50.14
2023-03-30T17:48:48.288Z,50.44
2023-03-30T17:51:15.465Z,50.38
2023-03-30T17:53:42.878Z,50.39
2023-03-30T17:56:13.398Z,50.54
2023-03-30T17:58:40.517Z,50.59
2023-03-30T18:01:12.442Z,50.86
2023-03-30T18:03:40.197Z,51.15
2023-03-30T18:06:08.066Z,51.44
2023-03-30T18:08:36.263Z,51.23
2023-03-30T18:11:05.076Z,51.53
2023-03-30T18:13:32.766Z,51.69
2023-03-30T18:16:01.144Z,51.50
2023-03-30T18:18:31.937Z,51.75
2023-03-30T18:21:05.409Z,52.18
2023-03-30T18:23:34.539Z,52.20
2023-03-30T18:26:08.390Z,52.42
2023-03-30T18:28:40.532Z,52.44
2023-03-30T18:31:10.794Z,52.65
2023-03-30T18:33:39.367Z,53.04
2023-03-30T18:36:13.097Z,53.12
2023-03-30T18:38:40.944Z,53.40
2023-03-30T18:41:12.470Z,53.36
2023-03-30T18:43:39.581Z,53.60
2023-03-30T18:46:07.021Z,53.60
2023-03-30T18:48:34.509Z,53.64
2023-03-30T18:51:01.757Z,53.79
2023-03-30T18:53:29.272Z,53.70
2023-03-30T18:56:00.690Z,53.52
2023-03-30T18:58:33.833Z,53.69
2023-03-30T19:01:01.539Z,53.63
2023-03-30T19:03:30.219Z,53.61
2023-03-30T19:05:57.456Z,53.72
2023-03-30T19:08:26.579Z,53.74
2023-03-30T19:10:56.881Z,53.87
2023-03-30T19:13:26.202Z,53.56
2023-03-30T19:15:53.691Z,53.74
2023-03-30T19:18:21.452Z,53.83
2023-03-30T19:20:51.274Z,53.53
2023-03-30T19:23:23.064Z,53.77
2023-03-30T19:25:50.843Z,53.59
2023-03-30T19:28:19.125Z,53.49
2023-03-30T19:30:46.723Z,53.46
2023-03-30T19:33:16.870Z,53.44
2023-03-30T19:35:46.334Z,53.56
2023-03-30T19:38:14.829Z,53.71
2023-03-30T19:40:42.707Z,53.53
2023-03-30T19:43:10.540Z,53.28
2023-03-30T19:45:38.313Z,53.16
2023-03-30T19:48:05.595Z,53.25
2023-03-30T19:50:32.828Z,53.21
2023-03-30T19:52:59.978Z,53.29
2023-03-30T19:55:27.638Z,53.17
2023-03-30T19:57:54.921Z,53.05
2023-03-30T20:00:22.122Z,53.03
2023-03-30T20:02:52.963Z,53.01
2023-03-30T20:05:22.862Z,53.18
2023-03-30T20:07:50.547Z,53.30
2023-03-30T20:10:25.053Z,53.38
2023-03-30T20:12:53.582Z,53.63
2023-03-30T20:15:23.470Z,53.72
2023-03-30T20:17:58.629Z,53.57
2023-03-30T20:20:26.300Z,53.50
2023-03-30T20:22:56.517Z,53.52
2023-03-30T20:25:24.790Z,53.67
2023-03-30T20:27:52.975Z,53.83
2023-03-30T20:30:21.183Z,54.01
2023-03-30T20:33:00.199Z,54.12
2023-03-30T20:35:37.884Z,53.85
2023-03-30T20:38:06.281Z,53.85
2023-03-30T20:40:34.786Z,53.80
2023-03-30T20:43:10.069Z,53.81
2023-03-30T20:45:46.408Z,53.63
2023-03-30T20:48:27.032Z,53.53
2023-03-30T20:50:55.938Z,53.54
2023-03-30T20:53:23.722Z,53.65
2023-03-30T20:55:51.137Z,53.74
2023-03-30T20:58:18.228Z,53.73
2023-03-30T21:00:47.447Z,53.74
2023-03-30T21:03:15.564Z,53.63
2023-03-30T21:05:42.694Z,53.45
2023-03-30T21:08:09.811Z,53.43
2023-03-30T21:10:40.688Z,53.54
2023-03-30T21:13:07.744Z,53.50
2023-03-30T21:15:35.140Z,53.81
2023-03-30T21:18:02.453Z,53.72
2023-03-30T21:20:31.017Z,54.05
2023-03-30T21:22:58.186Z,54.01
2023-03-30T21:25:25.284Z,54.09
2023-03-30T21:27:52.427Z,54.37
2023-03-30T21:30:19.688Z,54.19
2023-03-30T21:32:46.768Z,54.02
2023-03-30T21:35:13.899Z,54.18
2023-03-30T21:37:41.031Z,54.07
2023-03-30T21:40:08.808Z,54.06
2023-03-30T21:42:35.978Z,53.95
2023-03-30T21:45:03.246Z,53.94
2023-03-30T21:47:30.496Z,53.69
2023-03-30T21:49:57.562Z,53.63
2023-03-30T21:52:24.782Z,53.55
2023-03-30T21:54:52.125Z,53.56
2023-03-30T21:57:19.306Z,53.29
2023-03-30T21:59:46.538Z,52.76
2023-03-30T22:02:13.640Z,52.67
2023-03-30T22:04:44.135Z,52.62
2023-03-30T22:07:11.624Z,52.18
2023-03-30T22:09:38.944Z,52.04
2023-03-30T22:12:06.713Z,51.53
2023-03-30T22:14:34.288Z,51.44
2023-03-30T22:17:01.382Z,51.53
2023-03-30T22:19:31.981Z,51.37
2023-03-30T22:21:59.112Z,51.31
2023-03-30T22:24:26.241Z,51.46
2023-03-30T22:26:53.303Z,51.26
2023-03-30T22:29:20.955Z,51.51
2023-03-30T22:31:48.129Z,51.46
2023-03-30T22:34:15.476Z,51.54
2023-03-30T22:36:43.468Z,51.28
2023-03-30T22:39:10.641Z,51.66
2023-03-30T22:41:38.229Z,51.92
2023-03-30T22:44:05.421Z,51.96
2023-03-30T22:46:32.582Z,52.33
2023-03-30T22:49:00.246Z,52.42
2023-03-30T22:51:27.477Z,52.73
2023-03-30T22:54:00.188Z,52.73
2023-03-30T22:56:29.498Z,52.89
2023-03-30T22:58:57.414Z,52.89
2023-03-30T23:01:24.664Z,52.84
2023-03-30T23:03:53.623Z,52.75
2023-03-30T23:06:21.496Z,52.64
2023-03-30T23:08:49.170Z,52.74
2023-03-30T23:11:16.702Z,52.88
2023-03-30T23:13:43.979Z,52.76
2023-03-30T23:16:11.226Z,52.74
2023-03-30T23:18:39.087Z,53.03
2023-03-30T23:21:08.176Z,53.09
2023-03-30T23:23:39.147Z,52.93
2023-03-30T23:26:10.175Z,53.07
2023-03-30T23:28:40.405Z,53.18
2023-03-30T23:31:17.572Z,53.12
2023-03-30T23:33:45.768Z,53.00
2023-03-30T23:36:13.936Z,52.64
2023-03-30T23:38:41.769Z,52.46
2023-03-30T23:41:09.865Z,52.17
2023-03-30T23:43:37.010Z,51.98
2023-03-30T23:46:04.849Z,51.82
2023-03-30T23:48:32.784Z,51.94
2023-03-30T23:50:59.828Z,51.73
2023-03-30T23:53:27.085Z,51.64
2023-03-30T23:55:54.875Z,51.80
2023-03-30T23:58:22.537Z,51.55
